Time;durP1;ratioP1;P1;durP2;ratioP2;P2;SDS_P1;SDS_P2;PMS_P1;PMS_P2;Temp;Humidity;BMP_temperature;BMP_pressure;BME280_temperature;BME280_humidity;BME280_pressure;Samples;Min_cycle;Max_cycle;Signal;HPM_P1;HPM_P2
2024/03/07 00:02:23;;;;;;;0.00;0.00;;;;;;;5.75;100.00;100959.69;6254377;22;20006;-77
2024/03/07 00:04:51;;;;;;;0.00;0.00;;;;;;;5.77;100.00;100954.88;6256129;22;19995;-76
2024/03/07 00:07:16;;;;;;;0.00;0.00;;;;;;;5.75;100.00;100937.97;6280308;22;20390;-77
2024/03/07 00:09:42;;;;;;;0.10;0.10;;;;;;;5.81;100.00;100940.84;6282530;22;20055;-77
2024/03/07 00:12:10;;;;;;;0.00;0.00;;;;;;;5.71;100.00;100925.91;6226893;22;20419;-76
2024/03/07 00:14:36;;;;;;;0.00;0.00;;;;;;;5.74;100.00;100930.88;6203774;22;20008;-77
2024/03/07 00:17:02;;;;;;;0.00;0.00;;;;;;;5.85;100.00;100947.50;6227359;22;20090;-76
2024/03/07 00:19:31;;;;;;;0.00;0.00;;;;;;;5.63;100.00;100934.31;6253148;22;20012;-77
2024/03/07 00:21:57;;;;;;;0.00;0.00;;;;;;;5.37;100.00;100932.63;6230028;22;20003;-77
2024/03/07 00:24:27;;;;;;;0.00;0.00;;;;;;;5.11;100.00;100941.75;6253854;22;20652;-77
2024/03/07 00:26:53;;;;;;;0.00;0.00;;;;;;;4.81;100.00;100931.47;6255012;22;20008;-76
2024/03/07 00:29:19;;;;;;;0.00;0.00;;;;;;;4.62;100.00;100934.06;6227708;22;20035;-78
2024/03/07 00:31:46;;;;;;;0.00;0.00;;;;;;;4.49;100.00;100943.03;6229642;22;20506;-77
2024/03/07 00:34:14;;;;;;;0.00;0.00;;;;;;;4.17;100.00;100921.25;6231811;22;20003;-76
2024/03/07 00:36:40;;;;;;;0.00;0.00;;;;;;;4.06;100.00;100923.78;6227236;22;20023;-77
2024/03/07 00:39:08;;;;;;;0.00;0.00;;;;;;;4.01;100.00;100937.94;6230902;22;20012;-77
2024/03/07 00:41:34;;;;;;;0.00;0.00;;;;;;;3.72;100.00;100906.75;6229741;22;20000;-77
2024/03/07 00:43:59;;;;;;;0.00;0.00;;;;;;;3.76;100.00;100935.06;6258302;22;20057;-78
2024/03/07 00:46:25;;;;;;;0.00;0.00;;;;;;;3.64;100.00;100926.72;6254647;22;20027;-77
2024/03/07 00:48:50;;;;;;;0.00;0.00;;;;;;;3.52;100.00;100931.94;6231089;22;20094;-78
2024/03/07 00:51:16;;;;;;;0.00;0.00;;;;;;;3.52;100.00;100925.66;6229024;22;20012;-76
2024/03/07 00:53:41;;;;;;;0.00;0.00;;;;;;;3.58;100.00;100933.81;6256235;22;19988;-77
2024/03/07 00:56:07;;;;;;;0.00;0.00;;;;;;;3.58;100.00;100914.88;6257212;22;20011;-76
2024/03/07 00:58:35;;;;;;;0.00;0.00;;;;;;;3.81;100.00;100927.13;6227789;22;20448;-76
2024/03/07 01:01:01;;;;;;;0.00;0.00;;;;;;;3.79;100.00;100929.22;6230079;22;20011;-77
2024/03/07 01:03:26;;;;;;;0.00;0.00;;;;;;;3.73;100.00;100930.06;6227514;22;20070;-75
2024/03/07 01:05:52;;;;;;;0.00;0.00;;;;;;;3.63;100.00;100925.88;6203966;22;20086;-76
2024/03/07 01:08:18;;;;;;;0.00;0.00;;;;;;;3.56;100.00;100925.03;6203770;22;20007;-75
2024/03/07 01:10:43;;;;;;;0.00;0.00;;;;;;;3.44;100.00;100918.59;6230048;22;20012;-75
2024/03/07 01:13:18;;;;;;;0.00;0.00;;;;;;;3.30;100.00;100910.47;6229236;22;20098;-76
2024/03/07 01:15:45;;;;;;;0.00;0.00;;;;;;;3.40;100.00;100922.75;6254297;22;20007;-75
2024/03/07 01:18:11;;;;;;;0.00;0.00;;;;;;;3.49;100.00;100918.81;6253801;22;20014;-79
2024/03/07 01:20:36;;;;;;;0.00;0.00;;;;;;;3.59;100.00;100924.66;6229521;22;20055;-78
2024/03/07 01:23:05;;;;;;;0.00;0.00;;;;;;;3.64;100.00;100916.72;6254966;22;20019;-77
2024/03/07 01:25:33;;;;;;;0.00;0.00;;;;;;;3.61;100.00;100906.34;6231069;22;20008;-76
2024/03/07 01:28:00;;;;;;;0.00;0.00;;;;;;;3.71;100.00;100903.22;6203514;22;20007;-78
2024/03/07 01:30:27;;;;;;;0.00;0.00;;;;;;;3.74;100.00;100910.06;6254432;22;20074;-77
2024/03/07 01:32:54;;;;;;;0.00;0.00;;;;;;;3.67;100.00;100900.09;6228412;22;20132;-76
2024/03/07 01:35:19;;;;;;;0.00;0.00;;;;;;;3.72;100.00;100907.56;6230412;22;20007;-77
2024/03/07 01:37:45;;;;;;;0.00;0.00;;;;;;;3.62;100.00;100905.31;6228178;22;19996;-77
2024/03/07 01:40:11;;;;;;;0.00;0.00;;;;;;;3.49;100.00;100897.19;6231083;22;20031;-77
2024/03/07 01:42:42;;;;;;;0.00;0.00;;;;;;;3.45;100.00;100904.06;6255578;22;20004;-76
2024/03/07 01:45:09;;;;;;;0.03;0.03;;;;;;;3.35;100.00;100903.63;6253124;22;20004;-77
2024/03/07 01:47:36;;;;;;;0.00;0.00;;;;;;;3.26;100.00;100897.59;6205437;22;20026;-78
2024/03/07 01:50:03;;;;;;;0.00;0.00;;;;;;;3.16;100.00;100895.28;6204323;22;20004;-77
2024/03/07 01:52:31;;;;;;;0.00;0.00;;;;;;;3.08;100.00;100882.78;6205383;22;20330;-77
2024/03/07 01:54:57;;;;;;;0.00;0.00;;;;;;;3.06;100.00;100903.78;6228710;22;20319;-77
2024/03/07 01:57:23;;;;;;;0.00;0.00;;;;;;;2.96;100.00;100893.38;6231786;22;20012;-77
2024/03/07 01:59:50;;;;;;;0.00;0.00;;;;;;;2.87;100.00;100883.78;6257641;22;20010;-76
2024/03/07 02:02:17;;;;;;;0.10;0.10;;;;;;;2.80;100.00;100882.91;6260463;22;20004;-77
2024/03/07 02:04:43;;;;;;;0.00;0.00;;;;;;;2.80;100.00;100882.91;6285831;22;20007;-77
2024/03/07 02:07:11;;;;;;;0.00;0.00;;;;;;;2.79;100.00;100883.97;6256853;22;20008;-76
2024/03/07 02:09:37;;;;;;;0.00;0.00;;;;;;;2.66;100.00;100870.41;6234778;22;19999;-77
2024/03/07 02:12:05;;;;;;;0.00;0.00;;;;;;;2.66;100.00;100875.81;6265230;22;20003;-76
2024/03/07 02:14:31;;;;;;;0.00;0.00;;;;;;;2.62;100.00;100873.50;6268694;22;20012;-78
2024/03/07 02:16:56;;;;;;;0.00;0.00;;;;;;;2.59;100.00;100873.09;6231588;22;20011;-77
2024/03/07 02:19:23;;;;;;;0.03;0.03;;;;;;;2.66;100.00;100883.91;6256126;22;20011;-77
2024/03/07 02:21:48;;;;;;;0.00;0.00;;;;;;;2.57;100.00;100870.59;6255175;22;20486;-76
2024/03/07 02:24:15;;;;;;;0.00;0.00;;;;;;;2.55;100.00;100861.84;6256158;22;20042;-77
2024/03/07 02:26:43;;;;;;;0.00;0.00;;;;;;;2.54;100.00;100870.16;6257884;22;20411;-77
2024/03/07 02:29:09;;;;;;;0.00;0.00;;;;;;;2.47;100.00;100862.06;6208219;22;20008;-77
2024/03/07 02:31:36;;;;;;;0.00;0.00;;;;;;;2.55;100.00;100869.13;6256647;22;20019;-76
2024/03/07 02:34:03;;;;;;;0.10;0.10;;;;;;;2.52;100.00;100867.66;6230768;22;20014;-77
2024/03/07 02:36:29;;;;;;;0.00;0.00;;;;;;;2.56;100.00;100850.03;6233661;22;20031;-75
2024/03/07 02:38:54;;;;;;;0.00;0.00;;;;;;;2.50;100.00;100861.66;6282907;22;20015;-78
2024/03/07 02:41:22;;;;;;;0.00;0.00;;;;;;;2.42;100.00;100841.06;6255958;22;20011;-76
2024/03/07 02:43:47;;;;;;;0.00;0.00;;;;;;;2.46;100.00;100841.47;6253626;22;20007;-76
2024/03/07 02:46:16;;;;;;;0.00;0.00;;;;;;;2.43;100.00;100858.09;6280461;22;20038;-77
2024/03/07 02:48:41;;;;;;;0.00;0.00;;;;;;;2.48;100.00;100858.28;6230777;22;20031;-75
2024/03/07 02:51:07;;;;;;;0.00;0.00;;;;;;;2.51;100.00;100862.47;6230704;22;20423;-75
2024/03/07 02:53:32;;;;;;;0.00;0.00;;;;;;;2.62;100.00;100860.00;6203927;22;20007;-75
2024/03/07 02:56:01;;;;;;;0.10;0.10;;;;;;;2.59;100.00;100849.63;6254115;22;20008;-77
2024/03/07 02:58:26;;;;;;;0.00;0.00;;;;;;;2.59;100.00;100844.22;6283245;22;20361;-75
2024/03/07 03:01:01;;;;;;;0.00;0.00;;;;;;;2.67;100.00;100845.06;6255385;22;19996;-75
2024/03/07 03:03:27;;;;;;;0.10;0.10;;;;;;;2.74;100.00;100837.81;6283555;22;20124;-75
2024/03/07 03:05:52;;;;;;;0.10;0.10;;;;;;;2.88;100.00;100847.63;6279619;22;20004;-77
2024/03/07 03:08:18;;;;;;;0.00;0.00;;;;;;;2.88;100.00;100846.81;6256756;22;20008;-76
2024/03/07 03:10:44;;;;;;;0.00;0.00;;;;;;;2.77;100.00;100840.13;6282650;22;20008;-77
2024/03/07 03:13:10;;;;;;;0.10;0.10;;;;;;;2.64;100.00;100834.69;6229813;22;20027;-76
2024/03/07 03:15:37;;;;;;;0.10;0.10;;;;;;;2.59;100.00;100838.00;6254599;22;20445;-75
2024/03/07 03:18:03;;;;;;;0.00;0.00;;;;;;;2.47;100.00;100821.56;6254912;22;20004;-75
2024/03/07 03:20:38;;;;;;;0.00;0.00;;;;;;;2.58;100.00;100845.25;6253409;22;20006;-77
2024/03/07 03:23:05;;;;;;;0.00;0.00;;;;;;;2.51;100.00;100836.31;6256708;22;20008;-77
2024/03/07 03:25:34;;;;;;;0.00;0.00;;;;;;;2.42;100.00;100837.50;6228987;22;20018;-77
2024/03/07 03:28:01;;;;;;;0.00;0.00;;;;;;;2.33;100.00;100834.16;6231750;22;20015;-76
2024/03/07 03:30:27;;;;;;;0.00;0.00;;;;;;;2.22;100.00;100826.63;6254202;22;19988;-75
2024/03/07 03:32:52;;;;;;;0.00;0.00;;;;;;;2.18;100.00;100837.00;6204969;22;20015;-76
2024/03/07 03:35:19;;;;;;;0.00;0.00;;;;;;;2.08;100.00;100836.53;6253735;22;20090;-76
2024/03/07 03:37:45;;;;;;;0.10;0.10;;;;;;;2.05;100.00;100839.66;6254245;22;20004;-77
2024/03/07 03:40:11;;;;;;;0.00;0.00;;;;;;;1.98;100.00;100831.50;6253195;22;20007;-76
2024/03/07 03:42:38;;;;;;;0.00;0.00;;;;;;;1.97;100.00;100835.25;6255084;22;19992;-75
2024/03/07 03:45:08;;;;;;;0.10;0.10;;;;;;;1.90;100.00;100821.72;6254136;22;20006;-76
2024/03/07 03:47:35;;;;;;;0.10;0.10;;;;;;;1.84;100.00;100811.72;6229778;22;20085;-76
2024/03/07 03:50:05;;;;;;;0.00;0.00;;;;;;;1.89;100.00;100828.13;6228784;22;20007;-76
2024/03/07 03:52:31;;;;;;;0.00;0.00;;;;;;;1.86;100.00;100828.53;6252743;22;20008;-76
2024/03/07 03:54:58;;;;;;;0.00;0.00;;;;;;;1.82;100.00;100826.44;6255635;22;20008;-77
2024/03/07 03:57:24;;;;;;;0.00;0.00;;;;;;;1.78;100.00;100820.59;6255172;22;20114;-76
2024/03/07 03:59:49;;;;;;;0.00;0.00;;;;;;;1.75;100.00;100826.38;6228870;22;20010;-76
2024/03/07 04:02:17;;;;;;;0.00;0.00;;;;;;;1.71;100.00;100820.56;6229459;22;20007;-76
2024/03/07 04:04:44;;;;;;;0.00;0.00;;;;;;;1.62;100.00;100805.59;6228598;22;20094;-77
2024/03/07 04:07:09;;;;;;;0.10;0.10;;;;;;;1.59;100.00;100815.91;6280936;22;20084;-76
2024/03/07 04:09:35;;;;;;;0.00;0.00;;;;;;;1.60;100.00;100828.38;6229773;22;20327;-75
2024/03/07 04:12:00;;;;;;;0.00;0.00;;;;;;;1.52;100.00;100818.56;6254282;22;20064;-75
2024/03/07 04:14:26;;;;;;;0.00;0.00;;;;;;;1.53;100.00;100823.78;6254639;22;20027;-76
2024/03/07 04:16:51;;;;;;;0.00;0.00;;;;;;;1.53;100.00;100823.78;6229170;22;19996;-76
2024/03/07 04:19:20;;;;;;;0.00;0.00;;;;;;;1.58;100.00;100831.28;6228914;22;20003;-76
2024/03/07 04:21:45;;;;;;;0.00;0.00;;;;;;;1.66;100.00;100839.19;6231180;22;19984;-77
2024/03/07 04:24:12;;;;;;;0.00;0.00;;;;;;;1.72;100.00;100827.63;6254502;22;20556;-77
2024/03/07 04:26:37;;;;;;;0.00;0.00;;;;;;;1.75;100.00;100821.00;6254441;22;20004;-76
2024/03/07 04:29:03;;;;;;;0.00;0.00;;;;;;;1.84;100.00;100825.22;6254475;22;20008;-77
2024/03/07 04:31:29;;;;;;;0.00;0.00;;;;;;;1.80;100.00;100820.44;6253501;22;20008;-77
2024/03/07 04:33:54;;;;;;;0.00;0.00;;;;;;;1.90;100.00;100835.22;6253752;22;20006;-76
2024/03/07 04:36:19;;;;;;;0.00;0.00;;;;;;;1.84;100.00;100816.28;6254721;22;20015;-76
2024/03/07 04:38:45;;;;;;;0.00;0.00;;;;;;;1.85;100.00;100821.47;6253568;22;20023;-76
2024/03/07 04:41:11;;;;;;;0.10;0.10;;;;;;;1.81;100.00;100814.84;6280009;22;20003;-75
2024/03/07 04:43:37;;;;;;;0.00;0.00;;;;;;;1.84;100.00;100819.81;6280020;22;20023;-76
2024/03/07 04:46:05;;;;;;;0.00;0.00;;;;;;;1.77;100.00;100815.41;6228107;22;20018;-76
2024/03/07 04:48:30;;;;;;;0.00;0.00;;;;;;;1.79;100.00;100827.66;6253285;22;20323;-75
2024/03/07 04:50:57;;;;;;;0.10;0.10;;;;;;;1.61;100.00;100803.91;6253318;22;20019;-76
2024/03/07 04:53:22;;;;;;;0.00;0.00;;;;;;;1.59;100.00;100813.22;6254289;22;20085;-76
2024/03/07 04:55:48;;;;;;;0.00;0.00;;;;;;;1.55;100.00;100821.72;6252946;22;20327;-76
2024/03/07 04:58:13;;;;;;;0.00;0.00;;;;;;;1.43;100.00;100820.59;6254424;22;20003;-77
2024/03/07 05:00:38;;;;;;;0.08;0.08;;;;;;;1.49;100.00;100833.28;6229826;22;20032;-77
2024/03/07 05:03:04;;;;;;;0.10;0.10;;;;;;;1.43;100.00;100822.44;6254734;22;20008;-77
2024/03/07 05:05:30;;;;;;;0.10;0.10;;;;;;;1.35;100.00;100815.34;6229232;22;20007;-76
2024/03/07 05:07:55;;;;;;;0.00;0.00;;;;;;;1.21;100.00;100809.84;6240638;22;19996;-76
2024/03/07 05:10:21;;;;;;;0.00;0.00;;;;;;;1.17;100.00;100802.34;6246272;22;19988;-76
2024/03/07 05:12:47;;;;;;;0.10;0.10;;;;;;;1.24;100.00;100815.88;6242880;22;20083;-77
2024/03/07 05:15:12;;;;;;;0.00;0.00;;;;;;;1.32;100.00;100826.50;6265674;22;20012;-76
2024/03/07 05:17:39;;;;;;;0.10;0.10;;;;;;;1.28;100.00;100827.94;6210639;22;20311;-78
2024/03/07 05:20:10;;;;;;;0.10;0.10;;;;;;;1.27;100.00;100832.50;6259139;22;20022;-78
2024/03/07 05:22:40;;;;;;;0.00;0.00;;;;;;;1.25;100.00;100831.00;6238652;22;20073;-73
2024/03/07 05:25:06;;;;;;;0.00;0.00;;;;;;;1.27;100.00;100829.81;6285968;22;20031;-74
2024/03/07 05:27:33;;;;;;;0.00;0.00;;;;;;;1.29;100.00;100826.91;6231481;22;20008;-75
2024/03/07 05:29:59;;;;;;;0.00;0.00;;;;;;;1.37;100.00;100824.06;6256350;22;20015;-75
2024/03/07 05:32:25;;;;;;;0.00;0.00;;;;;;;1.34;100.00;100819.91;6230396;22;20091;-75
2024/03/07 05:34:53;;;;;;;0.10;0.10;;;;;;;1.36;100.00;100825.09;6227474;22;20000;-74
2024/03/07 05:37:23;;;;;;;0.00;0.00;;;;;;;1.34;100.00;100825.31;6253392;22;19996;-75
2024/03/07 05:39:49;;;;;;;0.10;0.10;;;;;;;1.34;100.00;100813.66;6254528;22;20010;-76
2024/03/07 05:42:14;;;;;;;0.00;0.00;;;;;;;1.51;100.00;100819.59;6203469;22;20091;-75
2024/03/07 05:44:41;;;;;;;0.00;0.00;;;;;;;1.83;100.00;100822.72;6230893;22;20012;-74
2024/03/07 05:47:07;;;;;;;0.10;0.10;;;;;;;2.00;100.00;100802.47;6252814;22;20369;-74
2024/03/07 05:49:33;;;;;;;0.00;0.00;;;;;;;2.23;100.00;100812.13;6254769;22;20049;-76
2024/03/07 05:51:58;;;;;;;0.00;0.00;;;;;;;2.41;100.00;100819.66;6253066;22;20081;-76
2024/03/07 05:54:28;;;;;;;0.00;0.00;;;;;;;2.53;100.00;100815.34;6231816;22;20059;-76
2024/03/07 05:56:54;;;;;;;0.00;0.00;;;;;;;2.76;100.00;100828.50;6257020;22;20051;-76
2024/03/07 05:59:20;;;;;;;0.00;0.00;;;;;;;2.81;100.00;100818.94;6230185;22;20012;-77
2024/03/07 06:01:47;;;;;;;0.00;0.00;;;;;;;2.98;100.00;100825.63;6230957;22;20007;-76
2024/03/07 06:04:12;;;;;;;0.00;0.00;;;;;;;3.11;100.00;100822.06;6252022;22;20008;-76
2024/03/07 06:06:38;;;;;;;0.00;0.00;;;;;;;3.21;100.00;100827.91;6256370;22;20012;-78
2024/03/07 06:09:07;;;;;;;0.00;0.00;;;;;;;3.20;100.00;100818.16;6254228;22;20015;-78
2024/03/07 06:11:41;;;;;;;0.00;0.00;;;;;;;3.16;100.00;100800.69;6283783;22;20043;-78
2024/03/07 06:14:07;;;;;;;;;;;;;;;3.29;100.00;100813.38;6253785;22;20020;-77
2024/03/07 06:16:36;;;;;;;0.00;0.00;;;;;;;3.17;100.00;100791.53;6282246;22;19922;-76
2024/03/07 06:19:02;;;;;;;0.00;0.00;;;;;;;3.39;100.00;100821.91;6252356;22;20008;-76
2024/03/07 06:21:31;;;;;;;0.00;0.00;;;;;;;3.37;100.00;100818.53;6253304;22;20011;-77
2024/03/07 06:24:00;;;;;;;0.00;0.00;;;;;;;3.41;100.00;100808.16;6255095;22;20008;-76
2024/03/07 06:26:48;;;;;;;0.00;0.00;;;;;;;3.46;100.00;100816.47;6252583;22;20000;-75
2024/03/07 06:29:22;;;;;;;0.00;0.00;;;;;;;3.46;100.00;100809.19;6278779;22;20070;-77
2024/03/07 06:31:57;;;;;;;0.00;0.00;;;;;;;3.41;100.00;100797.34;6253079;22;20110;-76
2024/03/07 06:34:22;;;;;;;0.00;0.00;;;;;;;3.42;100.00;100774.69;6254272;22;20023;-76
2024/03/07 06:36:48;;;;;;;0.10;0.10;;;;;;;3.52;100.00;100774.25;6250364;22;19988;-75
2024/03/07 06:39:13;;;;;;;0.00;0.00;;;;;;;3.82;100.00;100823.28;6254003;22;20011;-77
2024/03/07 06:41:39;;;;;;;0.00;0.00;;;;;;;3.78;100.00;100805.81;6251837;22;20008;-76
2024/03/07 06:44:05;;;;;;;0.00;0.00;;;;;;;3.94;100.00;100824.31;6251699;22;20007;-77
2024/03/07 06:46:32;;;;;;;0.10;0.10;;;;;;;3.81;100.00;100797.25;6228031;22;20021;-76
2024/03/07 06:48:57;;;;;;;0.00;0.00;;;;;;;3.98;100.00;100820.13;6252030;22;20008;-77
2024/03/07 06:51:24;;;;;;;0.05;0.05;;;;;;;4.13;100.00;100827.16;6254235;22;20022;-78
2024/03/07 06:53:50;;;;;;;0.00;0.00;;;;;;;4.19;100.00;100829.00;6252424;22;20786;-77
2024/03/07 06:56:16;;;;;;;0.00;0.00;;;;;;;4.17;100.00;100817.56;6281072;22;19999;-78
2024/03/07 06:58:48;;;;;;;0.00;0.00;;;;;;;4.09;100.00;100801.56;6254762;22;20006;-77
2024/03/07 07:01:21;;;;;;;0.10;0.10;;;;;;;4.29;100.00;100824.00;6229790;22;20026;-78
2024/03/07 07:03:47;;;;;;;0.00;0.00;;;;;;;4.42;100.00;100833.09;6226636;22;20077;-73
2024/03/07 07:06:13;;;;;;;0.00;0.00;;;;;;;4.32;100.00;100804.59;6227223;22;20030;-72
2024/03/07 07:08:41;;;;;;;0.10;0.10;;;;;;;4.40;100.00;100810.81;6229604;22;20015;-77
2024/03/07 07:11:11;;;;;;;0.10;0.10;;;;;;;4.63;100.00;100834.63;6255041;22;20000;-75
2024/03/07 07:13:54;;;;;;;0.00;0.00;;;;;;;4.68;100.00;100832.13;6234165;22;20017;-74
2024/03/07 07:16:21;;;;;;;0.00;0.00;;;;;;;4.70;100.00;100838.16;6222475;22;20011;-75
2024/03/07 07:18:51;;;;;;;0.00;0.00;;;;;;;4.67;100.00;100820.47;6222931;22;20035;-74
2024/03/07 07:21:23;;;;;;;0.10;0.10;;;;;;;4.68;100.00;100807.75;6219502;22;20011;-74
2024/03/07 07:23:49;;;;;;;0.00;0.00;;;;;;;4.95;100.00;100835.50;6222051;22;20011;-74
2024/03/07 07:26:14;;;;;;;0.05;0.05;;;;;;;5.04;100.00;100836.09;6220217;22;20016;-74
2024/03/07 07:28:40;;;;;;;0.03;0.03;;;;;;;5.11;100.00;100838.72;6222682;22;20016;-73
2024/03/07 07:31:06;;;;;;;0.00;0.00;;;;;;;5.12;100.00;100835.78;6194759;23;20016;-74
2024/03/07 07:33:34;;;;;;;0.00;0.00;;;;;;;5.26;100.00;100820.28;6171647;22;19996;-74
2024/03/07 07:36:00;;;;;;;0.10;0.10;;;;;;;5.34;100.00;100817.25;6196477;22;20012;-73
2024/03/07 07:38:26;;;;;;;0.03;0.03;;;;;;;5.42;100.00;100827.03;6221330;22;20015;-74
2024/03/07 07:40:51;;;;;;;0.10;0.10;;;;;;;5.53;100.00;100833.59;6222643;22;20008;-74
2024/03/07 07:43:17;;;;;;;0.10;0.10;;;;;;;5.51;100.00;100831.09;6197558;22;20015;-76
2024/03/07 07:45:43;;;;;;;0.00;0.00;;;;;;;5.41;100.00;100828.88;6220003;22;20050;-74
2024/03/07 07:48:08;;;;;;;0.00;0.00;;;;;;;5.30;100.00;100824.22;6219814;23;20004;-73
2024/03/07 07:50:34;;;;;;;0.00;0.00;;;;;;;5.42;100.00;100838.69;6219481;22;21091;-72
2024/03/07 07:53:00;;;;;;;0.00;0.00;;;;;;;5.51;100.00;100835.72;6220091;23;20011;-73
2024/03/07 07:55:29;;;;;;;0.00;0.00;;;;;;;5.58;100.00;100829.16;6221900;23;20012;-72
2024/03/07 07:57:59;;;;;;;0.00;0.00;;;;;;;5.64;100.00;100827.44;6195930;22;20016;-72
2024/03/07 08:00:28;;;;;;;0.00;0.00;;;;;;;5.69;100.00;100827.59;6219493;23;20004;-72
2024/03/07 08:03:14;;;;;;;0.03;0.03;;;;;;;5.73;100.00;100830.69;6223759;22;20008;-74
2024/03/07 08:05:39;;;;;;;0.00;0.00;;;;;;;5.79;100.00;100820.84;6223535;22;20008;-73
2024/03/07 08:08:07;;;;;;;0.00;0.00;;;;;;;5.88;100.00;100827.63;6260232;22;20004;-73
2024/03/07 08:10:34;;;;;;;0.00;0.00;;;;;;;5.97;100.00;100810.00;6198014;23;20027;-73
2024/03/07 08:13:02;;;;;;;0.00;0.00;;;;;;;6.18;100.00;100816.06;6204905;22;20103;-74
2024/03/07 08:15:29;;;;;;;0.00;0.00;;;;;;;6.25;100.00;100805.91;6274742;22;20153;-74
2024/03/07 08:17:55;;;;;;;0.00;0.00;;;;;;;6.30;100.00;100811.50;6250004;22;20003;-74
2024/03/07 08:20:22;;;;;;;0.00;0.00;;;;;;;6.33;100.00;100797.47;6224209;22;20024;-73
2024/03/07 08:22:52;;;;;;;0.00;0.00;;;;;;;6.46;100.00;100802.72;6248745;22;20311;-74
2024/03/07 08:25:20;;;;;;;0.00;0.00;;;;;;;6.55;100.00;100794.25;6223934;22;20004;-74
2024/03/07 08:27:48;;;;;;;0.00;0.00;;;;;;;6.68;100.00;100799.50;6247631;22;20474;-73
2024/03/07 08:30:15;;;;;;;0.00;0.00;;;;;;;6.89;100.00;100800.03;6249620;22;20000;-73
2024/03/07 08:32:40;;;;;;;0.00;0.00;;;;;;;7.14;100.00;100797.97;6277255;22;20083;-74
2024/03/07 08:35:09;;;;;;;0.00;0.00;;;;;;;7.59;100.00;100790.31;6249287;22;20076;-74
2024/03/07 08:38:01;;;;;;;0.00;0.00;;;;;;;8.37;100.00;100799.06;6223113;22;20007;-74
2024/03/07 08:40:32;;;;;;;0.00;0.00;;;;;;;8.31;98.13;100794.56;6248909;22;20383;-74
2024/03/07 08:42:58;;;;;;;0.00;0.00;;;;;;;8.25;97.21;100787.34;6252511;22;20102;-74
2024/03/07 08:45:25;;;;;;;0.10;0.10;;;;;;;8.11;96.72;100784.09;6250929;22;20057;-74
2024/03/07 08:47:51;;;;;;;0.00;0.00;;;;;;;8.15;96.73;100786.09;6227436;22;20011;-73
2024/03/07 08:50:18;;;;;;;0.00;0.00;;;;;;;8.27;96.52;100775.16;6247388;22;20086;-74
2024/03/07 08:52:45;;;;;;;0.00;0.00;;;;;;;8.47;95.81;100771.19;6251114;22;20014;-72
2024/03/07 08:55:14;;;;;;;0.00;0.00;;;;;;;8.79;94.71;100781.59;6223003;22;20071;-72
2024/03/07 08:57:44;;;;;;;0.00;0.00;;;;;;;9.14;94.15;100786.88;6274890;22;20384;-72
2024/03/07 09:00:10;;;;;;;0.00;0.00;;;;;;;9.83;92.86;100782.97;6254924;22;20007;-73
2024/03/07 09:02:39;;;;;;;0.10;0.10;;;;;;;11.84;84.57;100761.09;6225396;22;20092;-73
2024/03/07 09:05:05;;;;;;;0.00;0.00;;;;;;;12.44;75.74;100773.66;6252024;22;20007;-72
2024/03/07 09:07:31;;;;;;;0.00;0.00;;;;;;;12.14;73.94;100780.69;6251451;22;20019;-73
2024/03/07 09:09:57;;;;;;;0.00;0.00;;;;;;;11.81;75.12;100788.16;6279248;22;20090;-74
2024/03/07 09:12:25;;;;;;;0.00;0.00;;;;;;;11.88;75.19;100775.06;6251862;22;20007;-74
2024/03/07 09:14:52;;;;;;;0.00;0.00;;;;;;;12.32;74.64;100774.72;6254957;22;20003;-72
2024/03/07 09:17:18;;;;;;;0.00;0.00;;;;;;;12.46;70.44;100772.31;6227207;22;20012;-72
2024/03/07 09:19:43;;;;;;;0.00;0.00;;;;;;;12.63;70.48;100772.09;6226636;22;20434;-73
2024/03/07 09:22:09;;;;;;;0.00;0.00;;;;;;;12.56;69.71;100766.03;6253892;22;20082;-74
2024/03/07 09:24:34;;;;;;;0.00;0.00;;;;;;;12.48;68.73;100764.63;6252346;22;20007;-74
2024/03/07 09:27:00;;;;;;;0.00;0.00;;;;;;;12.32;67.96;100741.00;6253730;22;20007;-74
2024/03/07 09:29:27;;;;;;;0.00;0.00;;;;;;;12.48;67.82;100761.88;6251801;22;20042;-73
2024/03/07 09:31:53;;;;;;;0.00;0.00;;;;;;;12.63;67.72;100766.59;6253890;22;20029;-73
2024/03/07 09:34:23;;;;;;;0.10;0.10;;;;;;;13.43;66.30;100757.03;6254276;22;20003;-73
2024/03/07 09:36:51;;;;;;;0.00;0.00;;;;;;;13.73;63.21;100763.56;6226307;22;20023;-73
2024/03/07 09:39:17;;;;;;;0.00;0.00;;;;;;;14.97;62.76;100766.53;6254333;22;20004;-75
2024/03/07 09:41:43;;;;;;;0.00;0.00;;;;;;;17.15;56.53;100761.72;6226480;22;20078;-74
2024/03/07 09:44:22;;;;;;;0.00;0.00;;;;;;;20.47;48.88;100762.84;6227655;22;20026;-73
2024/03/07 09:46:55;;;;;;;0.00;0.00;;;;;;;21.55;43.91;100763.00;6277617;22;20075;-73
2024/03/07 09:49:21;;;;;;;0.00;0.00;;;;;;;23.40;40.99;100754.97;6253759;22;20012;-73
2024/03/07 09:51:54;;;;;;;0.00;0.00;;;;;;;24.52;37.63;100759.44;6226971;22;20008;-73
2024/03/07 09:54:24;;;;;;;0.00;0.00;;;;;;;24.53;37.66;100755.47;6253376;22;20004;-73
2024/03/07 09:56:51;;;;;;;0.00;0.00;;;;;;;24.57;36.96;100745.22;6252291;22;20441;-73
2024/03/07 09:59:20;;;;;;;0.00;0.00;;;;;;;26.79;34.97;100748.47;6276164;22;20008;-72
2024/03/07 10:01:48;;;;;;;0.00;0.00;;;;;;;29.51;30.63;100742.94;6252803;22;20379;-73
2024/03/07 10:04:20;;;;;;;0.00;0.00;;;;;;;30.84;27.63;100734.56;6248077;22;20007;-73
2024/03/07 10:06:46;;;;;;;0.00;0.00;;;;;;;27.83;28.75;100734.72;6278238;22;19999;-73
2024/03/07 10:09:16;;;;;;;0.00;0.00;;;;;;;25.83;30.68;100725.47;6224852;22;20023;-72
2024/03/07 10:11:41;;;;;;;0.00;0.00;;;;;;;25.19;30.63;100733.81;6279924;22;20000;-72
2024/03/07 10:14:07;;;;;;;0.00;0.00;;;;;;;23.33;32.01;100727.66;6250270;22;20032;-73
2024/03/07 10:16:33;;;;;;;0.00;0.00;;;;;;;21.60;34.36;100720.25;6226975;22;20034;-73
2024/03/07 10:19:00;;;;;;;0.00;0.00;;;;;;;20.85;35.27;100723.34;6226801;22;20011;-74
2024/03/07 10:21:26;;;;;;;0.00;0.00;;;;;;;21.20;35.94;100712.16;6250396;22;20007;-72
2024/03/07 10:24:05;;;;;;;0.00;0.00;;;;;;;20.16;36.79;100708.25;6280157;22;20060;-73
2024/03/07 10:26:34;;;;;;;0.00;0.00;;;;;;;20.02;36.34;100713.97;6250542;22;20285;-73
2024/03/07 10:28:59;;;;;;;0.00;0.00;;;;;;;18.23;38.32;100698.81;6251617;22;19991;-73
2024/03/07 10:31:29;;;;;;;0.00;0.00;;;;;;;17.01;40.50;100706.44;6276325;22;20767;-72
2024/03/07 10:34:02;;;;;;;0.00;0.00;;;;;;;16.85;42.86;100707.75;6226564;22;20438;-73
2024/03/07 10:36:30;;;;;;;0.08;0.08;;;;;;;17.54;42.34;100707.94;6253018;22;20042;-74
2024/03/07 10:39:11;;;;;;;0.00;0.00;;;;;;;18.07;42.57;100703.03;6251849;22;20014;-72
2024/03/07 10:41:49;;;;;;;0.00;0.00;;;;;;;20.79;40.67;100702.41;6279378;22;20007;-73
2024/03/07 10:44:24;;;;;;;0.00;0.00;;;;;;;25.17;33.17;100696.97;6251960;22;20311;-72
2024/03/07 10:46:52;;;;;;;0.00;0.00;;;;;;;24.19;32.84;100690.56;6277427;22;20073;-73
2024/03/07 10:49:24;;;;;;;0.00;0.00;;;;;;;23.02;34.45;100694.66;6251672;22;20086;-73
2024/03/07 10:51:56;;;;;;;0.00;0.00;;;;;;;24.20;32.86;100689.41;6278396;22;20015;-72
2024/03/07 10:54:46;;;;;;;0.00;0.00;;;;;;;24.55;32.47;100685.25;6251644;22;20028;-73
2024/03/07 10:57:29;;;;;;;0.00;0.00;;;;;;;28.60;29.39;100695.28;6248759;22;20015;-71
2024/03/07 11:00:24;;;;;;;0.00;0.00;;;;;;;31.62;25.03;100697.22;6252356;22;20018;-73
2024/03/07 11:02:53;;;;;;;0.00;0.00;;;;;;;31.25;23.88;100689.09;6253636;22;20014;-73
2024/03/07 11:05:19;;;;;;;0.00;0.00;;;;;;;28.76;25.16;100675.41;6254568;22;20110;-74
2024/03/07 11:07:44;;;;;;;0.00;0.00;;;;;;;25.64;26.96;100686.16;6228408;22;20004;-73
2024/03/07 11:10:11;;;;;;;0.00;0.00;;;;;;;22.59;29.63;100670.78;6228518;22;20079;-73
2024/03/07 11:12:40;;;;;;;0.00;0.00;;;;;;;20.80;32.47;100671.53;6261408;22;20003;-73
2024/03/07 11:15:14;;;;;;;0.00;0.00;;;;;;;19.65;34.65;100661.41;6256278;22;20041;-72
2024/03/07 11:17:42;;;;;;;0.00;0.00;;;;;;;18.13;36.91;100652.00;6253896;22;20018;-73
2024/03/07 11:20:20;;;;;;;0.00;0.00;;;;;;;17.19;38.76;100652.22;6250137;22;20007;-73
2024/03/07 11:22:46;;;;;;;0.00;0.00;;;;;;;17.14;39.52;100654.25;6280643;22;20386;-73
2024/03/07 11:25:12;;;;;;;0.00;0.00;;;;;;;16.73;40.43;100647.47;6273926;22;20011;-72
2024/03/07 11:27:58;;;;;;;0.00;0.00;;;;;;;16.18;41.45;100637.88;6251401;22;20005;-74
2024/03/07 11:30:24;;;;;;;0.00;0.00;;;;;;;15.56;42.72;100637.84;6274193;22;20015;-72